createdAt,value
2023-05-21T00:01:32.566Z,97576.79
2023-05-21T00:04:00.508Z,97572.14
2023-05-21T00:06:28.703Z,97566.69
2023-05-21T00:08:56.823Z,97566.89
2023-05-21T00:11:24.749Z,97563.46
2023-05-21T00:13:52.622Z,97557.37
2023-05-21T00:16:20.598Z,97555.09
2023-05-21T00:18:54.480Z,97556.02
2023-05-21T00:21:22.893Z,97554.52
2023-05-21T00:23:50.791Z,97555.55
2023-05-21T00:26:18.775Z,97554.61
2023-05-21T00:28:46.652Z,97552.42
2023-05-21T00:31:14.489Z,97547.56
2023-05-21T00:33:42.288Z,97546.09
2023-05-21T00:36:14.296Z,97547.00
2023-05-21T00:38:44.137Z,97548.25
2023-05-21T00:41:12.630Z,97549.36
2023-05-21T00:43:42.098Z,97550.43
2023-05-21T00:46:19.601Z,97549.44
2023-05-21T00:48:49.472Z,97545.35
2023-05-21T00:51:18.736Z,97539.23
2023-05-21T00:53:51.553Z,97542.52
2023-05-21T00:56:22.761Z,97545.85
2023-05-21T00:58:54.785Z,97541.38
2023-05-21T01:01:25.878Z,97534.21
2023-05-21T01:03:57.639Z,97532.30
2023-05-21T01:06:25.576Z,97529.54
2023-05-21T01:08:53.400Z,97529.52
2023-05-21T01:11:22.058Z,97533.83
2023-05-21T01:13:50.794Z,97533.01
2023-05-21T01:16:18.911Z,97530.84
2023-05-21T01:18:47.887Z,97530.40
2023-05-21T01:21:17.547Z,97526.02
2023-05-21T01:23:46.028Z,97523.04
2023-05-21T01:26:13.956Z,97517.54
2023-05-21T01:28:42.231Z,97514.33
2023-05-21T01:31:30.495Z,97511.79
2023-05-21T01:34:05.702Z,97511.43
2023-05-21T01:36:42.200Z,97508.94
2023-05-21T01:39:21.361Z,97500.66
2023-05-21T01:41:51.526Z,97497.39
2023-05-21T01:44:20.105Z,97502.52
2023-05-21T01:46:49.617Z,97499.89
2023-05-21T01:49:18.032Z,97498.33
2023-05-21T01:51:46.237Z,97495.18
2023-05-21T01:54:14.596Z,97497.02
2023-05-21T01:56:42.415Z,97499.20
2023-05-21T01:59:11.794Z,97503.58
2023-05-21T02:01:39.822Z,97503.04
2023-05-21T02:04:07.738Z,97512.25
2023-05-21T02:06:36.877Z,97517.83
2023-05-21T02:09:05.237Z,97516.16
2023-05-21T02:11:33.179Z,97508.95
2023-05-21T02:14:01.179Z,97502.69
2023-05-21T02:16:29.136Z,97503.41
2023-05-21T02:18:58.038Z,97501.64
2023-05-21T02:21:26.033Z,97497.64
2023-05-21T02:23:53.906Z,97494.74
2023-05-21T02:26:22.794Z,97493.95
2023-05-21T02:28:52.933Z,97498.05
2023-05-21T02:31:21.105Z,97498.33
2023-05-21T02:33:49.053Z,97495.87
2023-05-21T02:36:19.142Z,97492.31
2023-05-21T02:38:47.724Z,97490.71
2023-05-21T02:41:15.509Z,97485.42
2023-05-21T02:43:43.510Z,97483.89
2023-05-21T02:46:11.432Z,97478.52
2023-05-21T02:48:39.371Z,97477.14
2023-05-21T02:51:07.325Z,97480.60
2023-05-21T02:53:35.241Z,97485.42
2023-05-21T02:56:03.182Z,97487.93
2023-05-21T02:58:31.168Z,97487.64
2023-05-21T03:00:59.129Z,97487.27
2023-05-21T03:03:27.153Z,97483.80
2023-05-21T03:05:55.102Z,97485.81
2023-05-21T03:08:23.295Z,97486.23
2023-05-21T03:10:51.226Z,97486.59
2023-05-21T03:13:19.290Z,97480.87
2023-05-21T03:15:47.220Z,97480.45
2023-05-21T03:18:15.135Z,97479.20
2023-05-21T03:20:45.949Z,97472.45
2023-05-21T03:23:16.477Z,97473.08
2023-05-21T03:25:46.194Z,97474.39
2023-05-21T03:28:14.216Z,97472.66
2023-05-21T03:30:46.604Z,97471.44
2023-05-21T03:33:15.617Z,97469.67
2023-05-21T03:35:43.634Z,97471.75
2023-05-21T03:38:11.698Z,97467.81
2023-05-21T03:40:39.516Z,97466.18
2023-05-21T03:43:07.349Z,97464.64
2023-05-21T03:45:35.430Z,97472.43
2023-05-21T03:48:03.716Z,97475.25
2023-05-21T03:50:31.664Z,97475.24
2023-05-21T03:52:59.652Z,97475.13
2023-05-21T03:55:27.493Z,97477.82
2023-05-21T03:57:55.811Z,97480.07
2023-05-21T04:00:23.753Z,97478.10
2023-05-21T04:02:52.070Z,97476.12
2023-05-21T04:05:20.378Z,97475.70
2023-05-21T04:07:48.738Z,97480.40
2023-05-21T04:10:16.752Z,97484.57
2023-05-21T04:12:44.934Z,97482.70
2023-05-21T04:15:12.773Z,97486.35
2023-05-21T04:17:41.655Z,97487.77
2023-05-21T04:20:09.734Z,97486.45
2023-05-21T04:22:37.875Z,97488.15
2023-05-21T04:25:06.498Z,97488.62
2023-05-21T04:27:34.775Z,97481.73
2023-05-21T04:30:04.316Z,97479.74
2023-05-21T04:32:33.535Z,97481.92
2023-05-21T04:35:02.081Z,97485.84
2023-05-21T04:37:31.639Z,97487.96
2023-05-21T04:40:01.550Z,97489.10
2023-05-21T04:42:30.437Z,97488.39
2023-05-21T04:44:59.595Z,97488.26
2023-05-21T04:47:30.448Z,97493.25
2023-05-21T04:49:59.519Z,97492.70
2023-05-21T04:52:27.315Z,97490.13
2023-05-21T04:54:55.148Z,97486.20
2023-05-21T04:57:25.020Z,97488.04
2023-05-21T04:59:52.884Z,97486.05
2023-05-21T05:02:20.892Z,97482.21
2023-05-21T05:04:48.771Z,97483.09
2023-05-21T05:07:17.133Z,97481.62
2023-05-21T05:09:44.923Z,97478.33
2023-05-21T05:12:12.837Z,97475.36
2023-05-21T05:14:40.730Z,97477.21
2023-05-21T05:17:10.122Z,97473.45
2023-05-21T05:19:38.095Z,97472.83
2023-05-21T05:22:05.975Z,97469.02
2023-05-21T05:24:33.917Z,97468.00
2023-05-21T05:27:01.977Z,97466.52
2023-05-21T05:29:29.879Z,97468.49
2023-05-21T05:31:57.712Z,97466.68
2023-05-21T05:34:25.701Z,97466.80
2023-05-21T05:36:55.513Z,97466.95
2023-05-21T05:39:23.530Z,97465.19
2023-05-21T05:41:51.416Z,97462.64
2023-05-21T05:44:19.617Z,97462.10
2023-05-21T05:46:51.577Z,97460.51
2023-05-21T05:49:20.870Z,97461.88
2023-05-21T05:51:48.756Z,97462.92
2023-05-21T05:54:16.728Z,97455.86
2023-05-21T05:56:45.188Z,97457.61
2023-05-21T05:59:13.449Z,97452.98
2023-05-21T06:01:42.557Z,97450.52
2023-05-21T06:04:10.540Z,97447.80
2023-05-21T06:06:38.953Z,97452.15
2023-05-21T06:09:06.793Z,97454.03
2023-05-21T06:11:34.708Z,97458.99
2023-05-21T06:14:02.606Z,97452.66
2023-05-21T06:16:34.033Z,97455.55
2023-05-21T06:19:02.469Z,97453.01
2023-05-21T06:21:30.905Z,97454.88
2023-05-21T06:23:59.720Z,97452.15
2023-05-21T06:26:27.769Z,97450.64
2023-05-21T06:28:57.455Z,97449.91
2023-05-21T06:31:25.348Z,97445.95
2023-05-21T06:33:53.494Z,97441.31
2023-05-21T06:36:21.648Z,97440.86
2023-05-21T06:38:49.625Z,97439.52
2023-05-21T06:41:17.566Z,97435.27
2023-05-21T06:43:45.563Z,97431.63
2023-05-21T06:46:13.475Z,97428.75
2023-05-21T06:48:41.917Z,97422.55
2023-05-21T06:51:09.808Z,97421.80
2023-05-21T06:53:37.876Z,97422.26
2023-05-21T06:56:06.050Z,97421.65
2023-05-21T06:58:33.961Z,97417.96
2023-05-21T07:01:01.997Z,97418.64
2023-05-21T07:03:30.098Z,97413.58
2023-05-21T07:05:58.671Z,97405.16
2023-05-21T07:08:26.555Z,97401.85
2023-05-21T07:10:56.335Z,97398.50
2023-05-21T07:13:24.212Z,97394.23
2023-05-21T07:15:52.193Z,97391.30
2023-05-21T07:18:20.133Z,97391.70
2023-05-21T07:20:48.159Z,97391.31
2023-05-21T07:23:16.205Z,97391.55
2023-05-21T07:25:44.137Z,97388.98
2023-05-21T07:28:12.013Z,97393.30
2023-05-21T07:30:39.839Z,97388.62
2023-05-21T07:33:08.050Z,97389.46
2023-05-21T07:35:36.482Z,97391.70
2023-05-21T07:38:05.006Z,97392.95
2023-05-21T07:40:32.983Z,97394.02
2023-05-21T07:43:01.002Z,97391.77
2023-05-21T07:45:29.061Z,97389.27
2023-05-21T07:47:57.175Z,97388.27
2023-05-21T07:50:26.354Z,97386.31
2023-05-21T07:52:54.318Z,97389.74
2023-05-21T07:55:22.395Z,97388.42
2023-05-21T07:57:52.386Z,97386.77
2023-05-21T08:00:24.052Z,97381.00
2023-05-21T08:02:52.650Z,97380.09
2023-05-21T08:05:21.698Z,97376.13
2023-05-21T08:07:49.627Z,97378.50
2023-05-21T08:10:19.388Z,97378.38
2023-05-21T08:12:47.594Z,97377.13
2023-05-21T08:15:15.577Z,97373.91
2023-05-21T08:17:43.844Z,97375.72
2023-05-21T08:20:14.485Z,97375.95
2023-05-21T08:22:43.806Z,97374.55
2023-05-21T08:25:11.797Z,97368.10
2023-05-21T08:27:39.720Z,97368.80
2023-05-21T08:30:11.555Z,97365.05
2023-05-21T08:32:42.019Z,97365.23
2023-05-21T08:35:10.194Z,97368.67
2023-05-21T08:37:38.299Z,97371.52
2023-05-21T08:40:06.741Z,97372.21
2023-05-21T08:42:47.266Z,97369.39
2023-05-21T08:45:20.823Z,97367.88
2023-05-21T08:47:57.067Z,97367.83
2023-05-21T08:50:27.879Z,97367.66
2023-05-21T08:52:55.719Z,97366.61
2023-05-21T08:55:24.041Z,97366.35
2023-05-21T08:57:57.602Z,97366.67
2023-05-21T09:00:28.680Z,97367.27
2023-05-21T09:02:57.420Z,97364.59
2023-05-21T09:05:27.114Z,97364.21
2023-05-21T09:08:13.853Z,97363.69
2023-05-21T09:10:49.149Z,97365.97
2023-05-21T09:13:18.725Z,97365.98
2023-05-21T09:15:47.170Z,97360.77
2023-05-21T09:18:18.395Z,97364.87
2023-05-21T09:20:46.380Z,97361.79
2023-05-21T09:23:19.861Z,97361.88
2023-05-21T09:25:49.140Z,97361.63
2023-05-21T09:28:18.412Z,97361.14
2023-05-21T09:30:54.649Z,97356.94
2023-05-21T09:33:26.832Z,97353.89
2023-05-21T09:35:55.360Z,97353.89
2023-05-21T09:38:24.061Z,97353.15
2023-05-21T09:40:55.825Z,97352.98
2023-05-21T09:43:23.830Z,97348.23
2023-05-21T09:45:56.914Z,97348.56
2023-05-21T09:48:43.783Z,97346.64
2023-05-21T09:51:13.424Z,97344.21
2023-05-21T09:53:55.764Z,97342.96
2023-05-21T09:56:25.482Z,97336.41
2023-05-21T09:59:02.821Z,97338.52
2023-05-21T10:01:32.230Z,97341.64
2023-05-21T10:04:02.386Z,97341.02
2023-05-21T10:06:34.997Z,97339.92
2023-05-21T10:09:11.613Z,97335.18
2023-05-21T10:11:44.048Z,97335.15
2023-05-21T10:14:17.326Z,97330.95
2023-05-21T10:16:47.695Z,97328.44
2023-05-21T10:19:20.199Z,97321.98
2023-05-21T10:21:50.410Z,97322.15
2023-05-21T10:24:21.399Z,97323.20
2023-05-21T10:26:50.947Z,97323.33
2023-05-21T10:29:20.793Z,97320.42
2023-05-21T10:31:51.361Z,97318.32
2023-05-21T10:34:21.436Z,97314.91
2023-05-21T10:36:50.494Z,97311.23
2023-05-21T10:39:20.839Z,97308.65
2023-05-21T10:42:16.136Z,97309.96
2023-05-21T10:45:08.589Z,97307.98
2023-05-21T10:47:58.842Z,97303.91
2023-05-21T10:50:29.405Z,97298.86
2023-05-21T10:53:17.024Z,97295.80
2023-05-21T10:56:03.602Z,97287.34
2023-05-21T10:58:40.805Z,97290.59
2023-05-21T11:01:09.636Z,97288.77
2023-05-21T11:03:38.192Z,97289.02
2023-05-21T11:06:06.616Z,97282.72
2023-05-21T11:08:38.986Z,97281.30
2023-05-21T11:11:07.024Z,97288.02
2023-05-21T11:13:51.479Z,97284.73
2023-05-21T11:16:21.774Z,97282.30
2023-05-21T11:18:49.986Z,97283.02
2023-05-21T11:21:21.274Z,97284.69
2023-05-21T11:23:58.801Z,97279.55
2023-05-21T11:26:28.560Z,97274.36
2023-05-21T11:29:05.356Z,97274.87
2023-05-21T11:31:38.747Z,97281.94
2023-05-21T11:34:21.893Z,97281.91
2023-05-21T11:36:50.213Z,97278.71
2023-05-21T11:39:23.963Z,97276.04
2023-05-21T11:42:04.440Z,97271.00
2023-05-21T11:44:47.855Z,97261.38
2023-05-21T11:47:18.216Z,97255.31
2023-05-21T11:49:46.905Z,97255.20
2023-05-21T11:52:14.962Z,97252.63
2023-05-21T11:54:50.626Z,97251.08
2023-05-21T11:57:19.594Z,97250.23
2023-05-21T11:59:51.673Z,97243.67
2023-05-21T12:02:21.932Z,97241.94
2023-05-21T12:04:51.534Z,97239.42
2023-05-21T12:07:20.485Z,97239.30
2023-05-21T12:09:50.539Z,97239.23
2023-05-21T12:12:21.544Z,97240.87
2023-05-21T12:14:51.392Z,97237.27
2023-05-21T12:17:24.006Z,97239.81
2023-05-21T12:19:53.964Z,97244.89
2023-05-21T12:22:23.564Z,97238.89
2023-05-21T12:24:53.731Z,97232.73
2023-05-21T12:27:22.894Z,97230.35
2023-05-21T12:29:52.232Z,97228.45
2023-05-21T12:32:21.535Z,97227.78
2023-05-21T12:34:52.637Z,97225.75
2023-05-21T12:37:22.683Z,97223.73
2023-05-21T12:39:52.443Z,97222.27
2023-05-21T12:42:27.267Z,97219.49
2023-05-21T12:44:55.772Z,97216.89
2023-05-21T12:47:26.698Z,97213.67
2023-05-21T12:49:58.156Z,97210.43
2023-05-21T12:52:29.530Z,97205.46
2023-05-21T12:54:58.646Z,97208.17
2023-05-21T12:57:28.616Z,97208.05
2023-05-21T12:59:58.264Z,97207.08
2023-05-21T13:02:47.892Z,97201.00
2023-05-21T13:05:18.248Z,97198.64
2023-05-21T13:07:47.659Z,97198.35
2023-05-21T13:10:18.907Z,97194.83
2023-05-21T13:12:47.415Z,97192.37
2023-05-21T13:15:15.737Z,97188.65
2023-05-21T13:17:43.984Z,97186.33
2023-05-21T13:20:15.378Z,97185.71
2023-05-21T13:22:48.053Z,97182.58
2023-05-21T13:25:29.931Z,97184.45
2023-05-21T13:28:01.246Z,97185.79
2023-05-21T13:30:29.256Z,97186.88
2023-05-21T13:32:57.494Z,97186.69
2023-05-21T13:35:27.629Z,97186.55
2023-05-21T13:37:56.239Z,97184.50
2023-05-21T13:40:24.141Z,97179.95
2023-05-21T13:42:52.012Z,97176.79
2023-05-21T13:45:21.357Z,97175.42
2023-05-21T13:47:49.410Z,97175.98
2023-05-21T13:50:17.458Z,97177.41
2023-05-21T13:52:46.165Z,97174.45
2023-05-21T13:55:16.202Z,97170.35
2023-05-21T13:57:44.583Z,97170.30
2023-05-21T14:00:15.590Z,97176.61
2023-05-21T14:02:44.855Z,97173.52
2023-05-21T14:05:14.012Z,97172.02
2023-05-21T14:07:42.172Z,97170.08
2023-05-21T14:10:11.296Z,97168.11
2023-05-21T14:12:40.625Z,97165.92
2023-05-21T14:15:09.413Z,97164.73
2023-05-21T14:17:40.638Z,97161.05
2023-05-21T14:20:09.611Z,97159.14
2023-05-21T14:22:38.047Z,97162.17
2023-05-21T14:25:06.330Z,97166.61
2023-05-21T14:27:34.257Z,97168.90
2023-05-21T14:30:02.411Z,97168.44
2023-05-21T14:32:30.784Z,97167.88
2023-05-21T14:34:59.496Z,97164.29
2023-05-21T14:37:27.402Z,97161.08
2023-05-21T14:39:55.297Z,97160.16
2023-05-21T14:42:23.480Z,97157.65
2023-05-21T14:44:52.367Z,97156.11
2023-05-21T14:47:21.029Z,97150.41
2023-05-21T14:49:51.394Z,97144.76
2023-05-21T14:52:19.563Z,97141.05
2023-05-21T14:54:47.302Z,97135.39
2023-05-21T14:57:15.305Z,97134.70
2023-05-21T14:59:43.313Z,97137.70
2023-05-21T15:02:11.307Z,97138.66
2023-05-21T15:04:39.296Z,97138.84
2023-05-21T15:07:07.262Z,97142.41
2023-05-21T15:09:35.247Z,97146.45
2023-05-21T15:12:03.242Z,97149.23
2023-05-21T15:14:31.096Z,97155.53
2023-05-21T15:16:58.991Z,97167.75
2023-05-21T15:19:26.890Z,97169.72
2023-05-21T15:21:54.985Z,97170.73
2023-05-21T15:24:22.982Z,97162.88
2023-05-21T15:26:52.698Z,97156.21
2023-05-21T15:29:20.892Z,97150.99
2023-05-21T15:31:48.872Z,97143.80
2023-05-21T15:34:18.049Z,97144.33
2023-05-21T15:36:46.197Z,97140.42
2023-05-21T15:39:14.096Z,97133.65
2023-05-21T15:41:42.132Z,97131.02
2023-05-21T15:44:09.975Z,97131.86
2023-05-21T15:46:37.850Z,97128.16
2023-05-21T15:49:06.021Z,97129.09
2023-05-21T15:51:34.011Z,97134.59
2023-05-21T15:54:02.011Z,97137.35
2023-05-21T15:56:30.026Z,97143.11
2023-05-21T15:59:01.288Z,97144.73
2023-05-21T16:01:29.555Z,97146.62
2023-05-21T16:03:57.527Z,97141.75
2023-05-21T16:06:25.939Z,97138.09
2023-05-21T16:08:53.864Z,97131.64
2023-05-21T16:11:22.417Z,97129.11
2023-05-21T16:13:50.439Z,97130.94
2023-05-21T16:16:18.472Z,97134.87
2023-05-21T16:18:46.637Z,97132.88
2023-05-21T16:21:15.086Z,97132.55
2023-05-21T16:23:46.013Z,97128.41
2023-05-21T16:26:13.972Z,97128.73
2023-05-21T16:28:42.240Z,97128.91
2023-05-21T16:31:11.436Z,97136.21
2023-05-21T16:33:39.608Z,97135.91
2023-05-21T16:36:07.662Z,97136.50
2023-05-21T16:38:35.899Z,97135.09
2023-05-21T16:41:03.794Z,97136.13
2023-05-21T16:43:31.853Z,97139.99
2023-05-21T16:45:59.988Z,97143.33
2023-05-21T16:48:27.811Z,97143.52
2023-05-21T16:50:55.794Z,97147.35
2023-05-21T16:53:23.848Z,97147.13
2023-05-21T16:55:51.763Z,97144.59
2023-05-21T16:58:19.870Z,97148.36
2023-05-21T17:00:48.071Z,97146.24
2023-05-21T17:03:16.509Z,97145.33
2023-05-21T17:05:44.430Z,97150.36
2023-05-21T17:08:12.498Z,97151.81
2023-05-21T17:10:41.103Z,97151.38
2023-05-21T17:13:21.735Z,97148.11
2023-05-21T17:15:51.430Z,97149.83
2023-05-21T17:18:19.708Z,97152.95
2023-05-21T17:20:47.598Z,97148.45
2023-05-21T17:23:15.712Z,97152.12
2023-05-21T17:25:43.901Z,97156.98
2023-05-21T17:28:11.725Z,97161.98
2023-05-21T17:30:39.660Z,97161.35
2023-05-21T17:33:07.762Z,97164.70
2023-05-21T17:35:36.037Z,97169.45
2023-05-21T17:38:04.241Z,97171.13
2023-05-21T17:40:32.087Z,97171.27
2023-05-21T17:42:59.998Z,97169.92
2023-05-21T17:45:27.802Z,97171.96
2023-05-21T17:47:59.640Z,97176.31
2023-05-21T17:50:28.351Z,97173.70
2023-05-21T17:52:56.439Z,97172.24
2023-05-21T17:55:24.347Z,97174.42
2023-05-21T17:57:52.559Z,97177.27
2023-05-21T18:00:20.747Z,97176.70
2023-05-21T18:02:48.756Z,97175.64
2023-05-21T18:05:17.335Z,97175.45
2023-05-21T18:07:45.534Z,97174.04
2023-05-21T18:10:15.345Z,97174.10
2023-05-21T18:12:46.216Z,97176.01
2023-05-21T18:15:15.297Z,97178.73
2023-05-21T18:17:43.205Z,97178.48
2023-05-21T18:20:12.015Z,97180.56
2023-05-21T18:22:40.363Z,97174.77
2023-05-21T18:25:09.236Z,97174.33
2023-05-21T18:27:37.220Z,97172.02
2023-05-21T18:30:06.960Z,97174.63
2023-05-21T18:32:38.532Z,97176.75
2023-05-21T18:35:11.398Z,97179.63
2023-05-21T18:37:42.158Z,97179.69
2023-05-21T18:40:11.954Z,97180.73
2023-05-21T18:42:40.236Z,97182.36
2023-05-21T18:45:09.232Z,97186.16
2023-05-21T18:47:39.435Z,97187.84
2023-05-21T18:50:13.480Z,97192.73
2023-05-21T18:52:41.938Z,97198.80
2023-05-21T18:55:10.374Z,97199.60
2023-05-21T18:57:38.326Z,97201.04
2023-05-21T19:00:09.612Z,97203.16
2023-05-21T19:02:37.777Z,97207.63
2023-05-21T19:05:07.159Z,97210.70
2023-05-21T19:07:36.262Z,97210.41
2023-05-21T19:10:05.118Z,97212.63
2023-05-21T19:12:34.086Z,97211.50
2023-05-21T19:15:02.807Z,97213.52
2023-05-21T19:17:30.829Z,97211.70
2023-05-21T19:19:58.902Z,97212.34
2023-05-21T19:22:28.193Z,97218.17
2023-05-21T19:24:56.023Z,97219.64
2023-05-21T19:27:24.163Z,97222.24
2023-05-21T19:29:52.746Z,97222.09
2023-05-21T19:32:23.614Z,97223.13
2023-05-21T19:34:52.288Z,97228.45
2023-05-21T19:37:20.224Z,97241.59
2023-05-21T19:39:50.453Z,97251.30
2023-05-21T19:42:21.411Z,97257.02
2023-05-21T19:44:49.587Z,97265.01
2023-05-21T19:47:17.598Z,97272.58
2023-05-21T19:49:45.793Z,97275.44
2023-05-21T19:52:14.029Z,97271.09
2023-05-21T19:54:41.902Z,97267.46
2023-05-21T19:57:12.364Z,97269.73
2023-05-21T19:59:40.922Z,97268.95
2023-05-21T20:02:13.328Z,97262.04
2023-05-21T20:04:41.162Z,97261.05
2023-05-21T20:07:10.876Z,97264.60
2023-05-21T20:09:39.567Z,97270.94
2023-05-21T20:12:08.454Z,97270.76
2023-05-21T20:14:36.287Z,97267.81
2023-05-21T20:17:07.495Z,97270.09
2023-05-21T20:19:35.939Z,97271.27
2023-05-21T20:22:04.890Z,97270.12
2023-05-21T20:24:32.792Z,97270.42
2023-05-21T20:27:01.657Z,97274.42
2023-05-21T20:29:29.948Z,97271.64
2023-05-21T20:31:58.190Z,97272.83
2023-05-21T20:34:27.515Z,97277.27
2023-05-21T20:36:58.818Z,97277.35
2023-05-21T20:39:29.925Z,97278.12
2023-05-21T20:41:58.445Z,97282.40
2023-05-21T20:44:27.676Z,97280.95
2023-05-21T20:46:55.571Z,97280.95
2023-05-21T20:49:24.849Z,97278.91
2023-05-21T20:51:53.022Z,97275.79
2023-05-21T20:54:22.487Z,97273.83
2023-05-21T20:56:50.904Z,97276.12
2023-05-21T20:59:18.881Z,97274.45
2023-05-21T21:01:46.850Z,97276.65
2023-05-21T21:04:14.729Z,97277.95
2023-05-21T21:06:43.011Z,97280.08
2023-05-21T21:09:11.001Z,97281.75
2023-05-21T21:11:39.000Z,97281.41
2023-05-21T21:14:09.327Z,97282.36
2023-05-21T21:16:37.123Z,97290.40
2023-05-21T21:19:05.108Z,97291.08
2023-05-21T21:21:33.360Z,97293.16
2023-05-21T21:24:01.274Z,97292.46
2023-05-21T21:26:29.132Z,97295.05
2023-05-21T21:28:57.070Z,97296.98
2023-05-21T21:31:25.243Z,97292.09
2023-05-21T21:33:53.557Z,97291.52
2023-05-21T21:36:21.545Z,97295.40
2023-05-21T21:38:49.338Z,97295.23
2023-05-21T21:41:17.245Z,97296.96
2023-05-21T21:43:45.468Z,97297.09
2023-05-21T21:46:13.502Z,97299.33
2023-05-21T21:48:41.527Z,97304.52
2023-05-21T21:51:09.655Z,97304.85
2023-05-21T21:53:37.693Z,97304.44
2023-05-21T21:56:05.849Z,97304.70
2023-05-21T21:58:33.811Z,97304.08
2023-05-21T22:01:01.938Z,97304.29
2023-05-21T22:03:32.305Z,97308.30
2023-05-21T22:06:00.674Z,97309.94
2023-05-21T22:08:28.875Z,97303.82
2023-05-21T22:10:58.192Z,97300.94
2023-05-21T22:13:29.201Z,97297.98
2023-05-21T22:15:58.123Z,97299.09
2023-05-21T22:18:39.613Z,97297.48
2023-05-21T22:21:10.636Z,97296.65
2023-05-21T22:23:39.884Z,97299.89
2023-05-21T22:26:07.791Z,97300.88
2023-05-21T22:28:35.999Z,97298.92
2023-05-21T22:31:04.016Z,97299.17
2023-05-21T22:33:34.981Z,97298.82
2023-05-21T22:36:03.021Z,97298.25
2023-05-21T22:38:31.137Z,97298.63
2023-05-21T22:40:59.100Z,97302.55
2023-05-21T22:43:27.452Z,97303.56
2023-05-21T22:45:55.432Z,97306.73
2023-05-21T22:48:23.474Z,97302.77
2023-05-21T22:50:53.621Z,97302.41
2023-05-21T22:53:21.808Z,97309.61
2023-05-21T22:55:50.416Z,97310.89
2023-05-21T22:58:18.859Z,97310.50
2023-05-21T23:00:48.031Z,97309.66
2023-05-21T23:03:16.941Z,97312.00
2023-05-21T23:05:45.671Z,97308.98
2023-05-21T23:08:14.141Z,97311.21
2023-05-21T23:10:42.085Z,97311.54
2023-05-21T23:13:10.304Z,97308.39
2023-05-21T23:15:39.065Z,97306.75
2023-05-21T23:18:08.736Z,97303.09
2023-05-21T23:20:37.461Z,97302.89
2023-05-21T23:23:06.156Z,97307.80
2023-05-21T23:25:35.056Z,97311.55
2023-05-21T23:28:04.018Z,97310.83
2023-05-21T23:30:31.851Z,97305.27
2023-05-21T23:32:59.893Z,97301.40
2023-05-21T23:35:27.977Z,97301.26
2023-05-21T23:37:56.008Z,97298.80
2023-05-21T23:40:23.884Z,97297.82
2023-05-21T23:42:51.829Z,97299.27
2023-05-21T23:45:19.866Z,97299.15
2023-05-21T23:47:47.739Z,97298.98
2023-05-21T23:50:15.944Z,97295.20
2023-05-21T23:52:44.235Z,97293.52
2023-05-21T23:55:14.615Z,97287.48
2023-05-21T23:57:42.514Z,97282.98
